Time;durP1;ratioP1;P1;durP2;ratioP2;P2;SDS_P1;SDS_P2;PMS_P1;PMS_P2;Temp;Humidity;BMP_temperature;BMP_pressure;BME280_temperature;BME280_humidity;BME280_pressure;Samples;Min_cycle;Max_cycle;Signal;HPM_P1;HPM_P2
2022/06/27 04:07:13;;;;;;;;;16.33;16.33;;;;;;;;6127759;39;10001192;-61
2022/06/27 04:13:18;;;;;;;;;12.33;11.67;;;;;;;;6528699;36;8892;-60
2022/06/27 04:19:40;;;;;;;;;16.67;15.33;;;;;;;;6493477;39;8869;-60
2022/06/27 04:26:02;;;;;;;;;14.67;14.67;;;;;;;;6492764;39;9065;-60
2022/06/27 04:32:07;;;;;;;;;14.33;14.00;;;;;;;;6491194;31;8897;-61
2022/06/27 04:38:13;;;;;;;;;14.67;14.67;;;;;;;;6491305;39;8923;-60
2022/06/27 04:44:37;;;;;;;;;11.33;9.67;;;;;;;;6492314;39;9518;-59
2022/06/27 04:50:40;;;;;;;;;9.75;9.75;;;;;;;;6492479;39;9092;-60
2022/06/27 04:56:44;;;;;;;;;13.00;13.00;;;;;;;;6491839;39;8926;-61
2022/06/27 05:02:46;;;;;;;;;12.75;12.25;;;;;;;;6491802;39;8925;-60
2022/06/27 05:08:49;;;;;;;;;13.75;12.50;;;;;;;;6491006;39;8922;-60
2022/06/27 05:14:52;;;;;;;;;12.75;11.50;;;;;;;;6491190;39;8840;-61
2022/06/27 05:20:56;;;;;;;;;10.00;10.00;;;;;;;;6492167;31;8928;-60
2022/06/27 05:26:59;;;;;;;;;11.25;11.25;;;;;;;;6490898;31;8967;-59
2022/06/27 05:33:04;;;;;;;;;14.75;12.50;;;;;;;;6491643;39;8906;-61
2022/06/27 05:39:08;;;;;;;;;10.00;10.00;;;;;;;;6490093;47;8942;-59
2022/06/27 05:45:12;;;;;;;;;14.75;12.50;;;;;;;;6488755;47;9094;-62
2022/06/27 05:51:36;;;;;;;;;9.25;9.25;;;;;;;;6490058;39;8971;-61
2022/06/27 05:57:41;;;;;;;;;8.25;8.25;;;;;;;;6490638;39;8979;-61
2022/06/27 06:03:45;;;;;;;;;10.75;10.75;;;;;;;;6488151;47;9047;-61
2022/06/27 06:09:52;;;;;;;;;11.00;8.75;;;;;;;;6486022;46;8967;-61
2022/06/27 06:15:57;;;;;;;;;11.50;10.50;;;;;;;;6485213;39;8941;-60
2022/06/27 06:22:01;;;;;;;;;11.50;10.50;;;;;;;;6486029;39;9139;-62
2022/06/27 06:28:04;;;;;;;;;11.75;10.75;;;;;;;;6486029;39;8951;-60
2022/06/27 06:34:07;;;;;;;;;12.00;10.25;;;;;;;;6485295;39;8987;-61
2022/06/27 06:40:15;;;;;;;;;8.25;8.25;;;;;;;;6483174;31;8976;-60
2022/06/27 06:46:20;;;;;;;;;9.50;9.50;;;;;;;;6483590;39;8971;-60
2022/06/27 06:52:38;;;;;;;;;6.25;5.25;;;;;;;;6485306;39;8955;-60
2022/06/27 06:58:40;;;;;;;;;9.25;8.50;;;;;;;;6488506;39;9043;-61
2022/06/27 07:04:43;;;;;;;;;12.00;11.25;;;;;;;;6487403;39;8975;-61
2022/06/27 07:10:46;;;;;;;;;8.25;8.25;;;;;;;;6486383;31;8984;-59
2022/06/27 07:16:51;;;;;;;;;10.25;8.75;;;;;;;;6487673;47;8920;-60
2022/06/27 07:22:56;;;;;;;;;11.25;9.25;;;;;;;;6487458;39;8938;-62
2022/06/27 07:29:01;;;;;;;;;9.25;9.25;;;;;;;;6487210;39;9582;-61
2022/06/27 07:35:04;;;;;;;;;11.50;11.25;;;;;;;;6486741;31;8905;-61
2022/06/27 07:41:09;;;;;;;;;10.00;10.00;;;;;;;;6487230;46;8960;-61
2022/06/27 07:47:14;;;;;;;;;8.00;8.00;;;;;;;;6486794;39;8917;-62
2022/06/27 07:53:17;;;;;;;;;10.00;10.00;;;;;;;;6485624;46;9047;-61
2022/06/27 07:59:21;;;;;;;;;10.75;10.75;;;;;;;;6486914;39;8980;-61
2022/06/27 08:05:28;;;;;;;;;12.00;11.00;;;;;;;;6487342;31;9014;-60
2022/06/27 08:11:33;;;;;;;;;9.00;8.75;;;;;;;;6487606;31;8990;-61
2022/06/27 08:17:37;;;;;;;;;10.25;9.50;;;;;;;;6484421;39;8940;-61
2022/06/27 08:23:40;;;;;;;;;10.75;10.00;;;;;;;;6484284;39;8924;-60
2022/06/27 08:29:43;;;;;;;;;10.25;9.50;;;;;;;;6485135;46;9012;-61
2022/06/27 08:35:50;;;;;;;;;8.00;8.00;;;;;;;;6487808;39;8896;-60
2022/06/27 08:41:52;;;;;;;;;8.75;8.75;;;;;;;;6486283;46;8948;-60
2022/06/27 08:48:04;;;;;;;;;10.50;10.50;;;;;;;;6487314;31;8910;-61
2022/06/27 08:54:08;;;;;;;;;14.75;12.00;;;;;;;;6488045;39;9047;-62
2022/06/27 09:00:23;;;;;;;;;10.75;10.00;;;;;;;;6484879;39;9123;-61
2022/06/27 09:06:39;;;;;;;;;10.25;10.25;;;;;;;;6487786;39;9171;-60
2022/06/27 09:13:05;;;;;;;;;10.00;8.25;;;;;;;;6484070;31;9156;-60
2022/06/27 09:19:07;;;;;;;;;5.50;5.50;;;;;;;;6484084;46;8939;-61
2022/06/27 09:25:21;;;;;;;;;7.00;7.00;;;;;;;;6484909;31;8898;-61
2022/06/27 09:31:31;;;;;;;;;6.75;6.75;;;;;;;;6485831;46;8927;-61
2022/06/27 09:37:54;;;;;;;;;7.25;5.75;;;;;;;;6485626;39;8952;-60
2022/06/27 09:44:10;;;;;;;;;9.75;9.75;;;;;;;;6485628;39;8928;-60
2022/06/27 09:50:15;;;;;;;;;6.00;5.50;;;;;;;;6486680;39;8893;-60
2022/06/27 09:56:19;;;;;;;;;8.00;7.00;;;;;;;;6486979;39;8935;-60
2022/06/27 10:02:22;;;;;;;;;7.50;7.50;;;;;;;;6486136;39;9040;-61
2022/06/27 10:08:31;;;;;;;;;7.00;7.00;;;;;;;;6486266;31;8935;-61
2022/06/27 10:14:34;;;;;;;;;8.25;8.25;;;;;;;;6486587;39;8941;-63
2022/06/27 10:20:39;;;;;;;;;7.00;7.00;;;;;;;;6486606;39;8941;-61
2022/06/27 10:26:47;;;;;;;;;5.25;5.25;;;;;;;;6484057;39;9004;-61
2022/06/27 10:33:29;;;;;;;;;7.00;7.00;;;;;;;;6486767;39;8916;-60
2022/06/27 10:39:39;;;;;;;;;9.25;7.00;;;;;;;;6488237;47;8961;-62
2022/06/27 10:46:13;;;;;;;;;8.50;8.50;;;;;;;;6489144;39;9571;-60
2022/06/27 10:52:23;;;;;;;;;6.00;6.00;;;;;;;;6486461;39;8924;-60
2022/06/27 10:58:30;;;;;;;;;10.25;10.25;;;;;;;;6489266;39;9071;-62
2022/06/27 11:04:38;;;;;;;;;8.25;8.25;;;;;;;;6489198;46;8971;-62
2022/06/27 11:10:44;;;;;;;;;7.50;6.50;;;;;;;;6489498;31;8916;-61
2022/06/27 11:16:47;;;;;;;;;7.00;7.00;;;;;;;;6489866;39;9580;-60
2022/06/27 11:22:55;;;;;;;;;7.75;7.75;;;;;;;;6487667;46;8940;-60
2022/06/27 11:35:23;;;;;;;;;8.00;8.00;;;;;;;;6487587;39;8931;-61
2022/06/27 11:41:27;;;;;;;;;7.50;7.00;;;;;;;;6485826;39;8936;-60
2022/06/27 11:47:29;;;;;;;;;8.00;8.00;;;;;;;;6487386;39;8936;-60
2022/06/27 11:53:34;;;;;;;;;7.25;7.25;;;;;;;;6484697;31;8947;-62
2022/06/27 11:59:47;;;;;;;;;7.50;7.50;;;;;;;;6487242;39;9065;-61
2022/06/27 12:05:50;;;;;;;;;8.50;8.50;;;;;;;;6487308;46;9006;-62
2022/06/27 12:12:07;;;;;;;;;3.25;3.25;;;;;;;;6486963;39;9098;-59
2022/06/27 12:18:12;;;;;;;;;9.00;7.00;;;;;;;;6486266;39;8979;-62
2022/06/27 12:24:17;;;;;;;;;8.25;8.25;;;;;;;;6486091;46;9050;-61
2022/06/27 12:30:20;;;;;;;;;11.75;10.00;;;;;;;;6487167;31;8905;-61
2022/06/27 12:36:23;;;;;;;;;7.00;7.00;;;;;;;;6487704;31;9688;-64
2022/06/27 12:42:26;;;;;;;;;10.00;8.00;;;;;;;;6488101;39;8915;-59
2022/06/27 12:48:29;;;;;;;;;9.00;9.00;;;;;;;;6488884;31;8924;-62
2022/06/27 12:54:32;;;;;;;;;8.75;7.75;;;;;;;;6487549;39;8897;-61
2022/06/27 13:00:36;;;;;;;;;10.00;9.50;;;;;;;;6486869;39;8946;-60
2022/06/27 13:06:38;;;;;;;;;12.25;10.00;;;;;;;;6488169;31;10109;-62
2022/06/27 13:12:46;;;;;;;;;7.00;7.00;;;;;;;;6486759;39;8925;-62
2022/06/27 13:18:48;;;;;;;;;7.75;7.75;;;;;;;;6486207;39;8990;-62
2022/06/27 13:24:50;;;;;;;;;14.25;12.00;;;;;;;;6485527;39;8909;-60
2022/06/27 13:30:53;;;;;;;;;13.00;10.33;;;;;;;;6485766;39;8920;-61
2022/06/27 13:36:56;;;;;;;;;8.75;8.75;;;;;;;;6484547;31;8925;-62
2022/06/27 13:43:01;;;;;;;;;11.25;11.00;;;;;;;;6484463;46;8976;-63
2022/06/27 13:49:03;;;;;;;;;11.00;11.00;;;;;;;;6486429;39;8971;-60
2022/06/27 13:55:07;;;;;;;;;8.75;8.75;;;;;;;;6486709;39;8901;-60
2022/06/27 14:01:15;;;;;;;;;12.00;10.00;;;;;;;;6486043;31;8988;-61
2022/06/27 14:07:40;;;;;;;;;12.50;8.75;;;;;;;;6485623;39;9498;-60
2022/06/27 14:13:43;;;;;;;;;12.00;12.00;;;;;;;;6489250;39;8888;-62
2022/06/27 14:19:45;;;;;;;;;10.50;10.50;;;;;;;;6489607;31;9585;-61
2022/06/27 14:25:48;;;;;;;;;13.50;12.00;;;;;;;;6489011;31;8947;-62
2022/06/27 14:31:51;;;;;;;;;9.50;9.50;;;;;;;;6491073;39;8893;-61
2022/06/27 14:37:54;;;;;;;;;13.00;9.25;;;;;;;;6492273;31;8922;-59
2022/06/27 14:43:56;;;;;;;;;19.00;18.25;;;;;;;;6490653;39;8947;-63
2022/06/27 14:50:00;;;;;;;;;11.25;9.50;;;;;;;;6491053;46;8968;-61
2022/06/27 14:56:02;;;;;;;;;12.75;10.50;;;;;;;;6490388;39;9580;-62
2022/06/27 15:02:06;;;;;;;;;9.75;9.50;;;;;;;;6489908;31;9166;-61
2022/06/27 15:08:09;;;;;;;;;11.00;11.00;;;;;;;;6490591;46;9046;-61
2022/06/27 15:14:12;;;;;;;;;15.50;14.75;;;;;;;;6491955;39;9609;-62
2022/06/27 15:20:18;;;;;;;;;9.25;9.25;;;;;;;;6490659;46;8958;-60
2022/06/27 15:26:20;;;;;;;;;13.50;11.50;;;;;;;;6491546;39;8869;-62
2022/06/27 15:32:22;;;;;;;;;16.50;14.75;;;;;;;;6491409;31;8903;-60
2022/06/27 15:38:25;;;;;;;;;12.25;12.25;;;;;;;;6490691;46;8925;-61
2022/06/27 15:44:27;;;;;;;;;11.50;10.75;;;;;;;;6490836;46;8951;-60
2022/06/27 15:50:30;;;;;;;;;14.50;12.00;;;;;;;;6491152;46;8861;-61
2022/06/27 15:56:34;;;;;;;;;12.50;10.75;;;;;;;;6491786;31;8893;-60
2022/06/27 16:02:36;;;;;;;;;11.00;11.00;;;;;;;;6491249;39;9012;-60
2022/06/27 16:08:39;;;;;;;;;12.75;12.75;;;;;;;;6490971;31;8891;-61
2022/06/27 16:14:42;;;;;;;;;12.25;12.25;;;;;;;;6490855;39;8929;-62
2022/06/27 16:20:45;;;;;;;;;11.25;10.00;;;;;;;;6491377;39;8879;-61
2022/06/27 16:26:48;;;;;;;;;9.50;9.00;;;;;;;;6491662;31;8873;-62
2022/06/27 16:32:50;;;;;;;;;13.00;12.25;;;;;;;;6490553;39;8927;-62
2022/06/27 16:38:52;;;;;;;;;13.50;12.75;;;;;;;;6508213;36;8894;-61
2022/06/27 16:44:54;;;;;;;;;12.25;11.75;;;;;;;;6489939;46;8858;-60
2022/06/27 16:51:01;;;;;;;;;11.25;11.25;;;;;;;;6491556;31;9563;-61
2022/06/27 16:57:05;;;;;;;;;11.50;11.00;;;;;;;;6490514;39;8894;-60
2022/06/27 17:03:09;;;;;;;;;15.25;14.50;;;;;;;;6490880;39;8981;-61
2022/06/27 17:09:12;;;;;;;;;10.25;10.25;;;;;;;;6491009;39;8898;-60
2022/06/27 17:15:15;;;;;;;;;12.25;11.50;;;;;;;;6490885;46;8879;-61
2022/06/27 17:21:18;;;;;;;;;17.25;14.25;;;;;;;;6490474;46;8921;-60
2022/06/27 17:27:25;;;;;;;;;11.50;10.50;;;;;;;;6490553;46;8867;-60
2022/06/27 17:33:27;;;;;;;;;10.00;10.00;;;;;;;;6491100;31;8872;-62
2022/06/27 17:39:30;;;;;;;;;11.00;11.00;;;;;;;;6490220;46;8978;-61
2022/06/27 17:45:32;;;;;;;;;14.75;14.50;;;;;;;;6490684;31;8864;-59
2022/06/27 17:51:36;;;;;;;;;13.00;13.00;;;;;;;;6490830;39;8963;-61
2022/06/27 17:57:38;;;;;;;;;13.25;13.25;;;;;;;;6491454;31;8920;-60
2022/06/27 18:03:40;;;;;;;;;13.50;13.50;;;;;;;;6490816;46;8961;-62
2022/06/27 18:09:43;;;;;;;;;13.00;13.00;;;;;;;;6491853;39;8989;-59
2022/06/27 18:15:45;;;;;;;;;10.50;10.25;;;;;;;;6492350;46;8943;-62
2022/06/27 18:21:49;;;;;;;;;14.75;14.75;;;;;;;;6492596;39;8919;-61
2022/06/27 18:27:51;;;;;;;;;19.00;17.75;;;;;;;;6492625;31;8908;-61
2022/06/27 18:33:53;;;;;;;;;15.25;14.50;;;;;;;;6491186;31;9054;-63
2022/06/27 18:39:57;;;;;;;;;14.25;14.25;;;;;;;;6492574;31;9522;-60
2022/06/27 18:46:01;;;;;;;;;16.00;15.75;;;;;;;;6491078;39;8855;-59
2022/06/27 18:52:04;;;;;;;;;16.00;16.00;;;;;;;;6491813;31;9051;-59
2022/06/27 18:58:10;;;;;;;;;14.25;13.50;;;;;;;;6491833;46;9017;-61
2022/06/27 19:04:12;;;;;;;;;16.00;15.50;;;;;;;;6491217;39;8985;-60
2022/06/27 19:10:18;;;;;;;;;16.75;15.50;;;;;;;;6490891;39;9448;-60
2022/06/27 19:16:21;;;;;;;;;16.00;15.00;;;;;;;;6491731;39;8908;-60
2022/06/27 19:22:24;;;;;;;;;18.50;15.75;;;;;;;;6492421;31;8906;-61
2022/06/27 19:28:26;;;;;;;;;18.75;16.00;;;;;;;;6491836;39;8904;-61
2022/06/27 19:34:28;;;;;;;;;15.50;15.00;;;;;;;;6491459;39;8926;-61
2022/06/27 19:40:32;;;;;;;;;15.50;13.75;;;;;;;;6490328;46;8905;-60
2022/06/27 19:46:35;;;;;;;;;16.00;16.00;;;;;;;;6492227;31;8875;-60
2022/06/27 19:52:39;;;;;;;;;18.25;17.00;;;;;;;;6508515;36;9042;-60
2022/06/27 19:58:45;;;;;;;;;23.50;20.25;;;;;;;;6491594;39;9393;-61
2022/06/27 20:04:49;;;;;;;;;17.00;16.00;;;;;;;;6491641;39;8895;-61
2022/06/27 20:10:51;;;;;;;;;16.00;16.00;;;;;;;;6491645;31;8915;-61
2022/06/27 20:16:54;;;;;;;;;15.75;15.75;;;;;;;;6491103;31;8984;-63
2022/06/27 20:22:58;;;;;;;;;13.75;13.75;;;;;;;;6492169;31;8941;-61
2022/06/27 20:29:01;;;;;;;;;14.00;11.50;;;;;;;;6490661;46;8892;-61
2022/06/27 20:35:04;;;;;;;;;20.50;18.25;;;;;;;;6490895;39;8912;-60
2022/06/27 20:41:08;;;;;;;;;13.00;13.00;;;;;;;;6490250;39;9577;-60
2022/06/27 20:47:12;;;;;;;;;15.00;15.00;;;;;;;;6490766;46;8880;-60
2022/06/27 20:53:14;;;;;;;;;14.50;14.25;;;;;;;;6491626;39;9583;-60
2022/06/27 20:59:16;;;;;;;;;14.75;13.75;;;;;;;;6491368;39;8943;-60
2022/06/27 21:05:18;;;;;;;;;15.50;15.50;;;;;;;;6508382;36;8912;-61
2022/06/27 21:17:43;;;;;;;;;15.75;15.75;;;;;;;;6490263;46;8903;-60
2022/06/27 21:23:45;;;;;;;;;16.75;15.75;;;;;;;;6490100;46;8928;-61
2022/06/27 21:29:47;;;;;;;;;13.75;10.75;;;;;;;;6490603;46;8849;-60
2022/06/27 21:35:49;;;;;;;;;13.50;13.50;;;;;;;;6489749;39;9491;-59
2022/06/27 21:41:52;;;;;;;;;14.00;14.00;;;;;;;;6490272;39;8896;-60
2022/06/27 21:47:54;;;;;;;;;15.67;11.67;;;;;;;;6490085;39;8896;-60
2022/06/27 21:53:56;;;;;;;;;19.67;17.33;;;;;;;;6490371;31;8845;-59
2022/06/27 21:59:58;;;;;;;;;15.50;14.50;;;;;;;;6489889;47;9007;-60
2022/06/27 22:06:01;;;;;;;;;16.00;15.00;;;;;;;;6489598;47;8905;-59
2022/06/27 22:12:04;;;;;;;;;12.50;12.50;;;;;;;;6490219;39;8944;-60
2022/06/27 22:18:09;;;;;;;;;19.00;16.25;;;;;;;;6490140;36;8869;-60
2022/06/27 22:24:13;;;;;;;;;12.25;12.00;;;;;;;;6489209;39;8886;-60
2022/06/27 22:30:15;;;;;;;;;12.75;12.75;;;;;;;;6489436;39;8888;-59
2022/06/27 22:36:19;;;;;;;;;13.25;13.25;;;;;;;;6488884;47;8887;-61
2022/06/27 22:42:22;;;;;;;;;14.25;13.75;;;;;;;;6489451;47;8953;-59
2022/06/27 22:48:25;;;;;;;;;14.25;13.50;;;;;;;;6490567;31;8867;-61
2022/06/27 22:54:28;;;;;;;;;16.25;13.50;;;;;;;;6491471;31;8865;-59
2022/06/27 23:00:32;;;;;;;;;17.33;16.00;;;;;;;;6491347;46;8989;-61
2022/06/27 23:06:36;;;;;;;;;13.00;11.75;;;;;;;;6491857;31;9042;-61
2022/06/27 23:12:39;;;;;;;;;16.33;15.33;;;;;;;;6491047;36;8971;-59
2022/06/27 23:18:43;;;;;;;;;18.50;17.50;;;;;;;;6491669;39;8874;-60
2022/06/27 23:24:46;;;;;;;;;15.25;15.25;;;;;;;;6491175;39;9039;-60
2022/06/27 23:30:48;;;;;;;;;14.67;12.00;;;;;;;;6491445;39;8921;-59
2022/06/27 23:36:50;;;;;;;;;18.00;15.00;;;;;;;;6491220;39;8885;-60
2022/06/27 23:42:53;;;;;;;;;16.67;16.67;;;;;;;;6491976;31;8882;-59
2022/06/27 23:48:55;;;;;;;;;12.67;12.67;;;;;;;;6491491;46;8880;-61
2022/06/27 23:54:57;;;;;;;;;17.33;17.33;;;;;;;;6491544;39;8871;-59
